TimeMDT,TemperatureF,Dew PointF,Humidity,Sea Level PressureIn,VisibilityMPH,Wind Direction,Wind SpeedMPH,Gust SpeedMPH,PrecipitationIn,Events,Conditions,WindDirDegrees,DateUTC
12:55 AM,43.0,19.9,40,29.91,10.0,SSE,3.5,-,N/A,,Clear,160,2013-04-02 06:55:00
1:55 AM,43.0,21.0,42,29.92,10.0,Calm,Calm,-,N/A,,Clear,0,2013-04-02 07:55:00
2:55 AM,42.1,21.0,43,29.93,10.0,South,4.6,-,N/A,,Clear,170,2013-04-02 08:55:00
3:55 AM,37.9,21.0,51,29.94,10.0,Calm,Calm,-,N/A,,Clear,0,2013-04-02 09:55:00
4:55 AM,35.1,19.9,54,29.96,10.0,Calm,Calm,-,N/A,,Clear,0,2013-04-02 10:55:00
5:55 AM,34.0,19.9,56,29.98,10.0,Calm,Calm,-,N/A,,Clear,0,2013-04-02 11:55:00
6:55 AM,32.0,19.9,61,30.01,10.0,Calm,Calm,-,N/A,,Clear,0,2013-04-02 12:55:00
7:55 AM,32.0,21.0,64,30.05,10.0,Calm,Calm,-,N/A,,Clear,0,2013-04-02 13:55:00
8:55 AM,39.9,23.0,51,30.04,10.0,Calm,Calm,-,N/A,,Clear,0,2013-04-02 14:55:00
9:55 AM,46.9,24.1,41,30.02,10.0,Calm,Calm,-,N/A,,Clear,0,2013-04-02 15:55:00
10:55 AM,51.1,24.1,35,30.01,10.0,SSE,3.5,-,N/A,,Clear,150,2013-04-02 16:55:00
11:55 AM,55.0,25.0,31,29.99,10.0,Calm,Calm,-,N/A,,Clear,0,2013-04-02 17:55:00
12:55 PM,60.1,25.0,26,29.96,10.0,Calm,Calm,-,N/A,,Clear,0,2013-04-02 18:55:00
1:55 PM,63.0,23.0,22,29.93,10.0,ENE,5.8,-,N/A,,Clear,60,2013-04-02 19:55:00
2:55 PM,64.9,23.0,20,29.90,10.0,Variable,3.5,-,N/A,,Clear,0,2013-04-02 20:55:00
3:55 PM,66.0,23.0,20,29.89,10.0,Variable,3.5,-,N/A,,Clear,0,2013-04-02 21:55:00
4:55 PM,66.9,21.9,18,29.88,10.0,SE,5.8,-,N/A,,Clear,140,2013-04-02 22:55:00
5:55 PM,68.0,21.9,17,29.87,10.0,NE,5.8,-,N/A,,Scattered Clouds,50,2013-04-02 23:55:00
6:55 PM,66.0,19.0,17,29.88,10.0,NW,12.7,-,N/A,,Clear,310,2013-04-03 00:55:00
7:55 PM,60.1,19.0,20,29.91,10.0,WNW,10.4,-,N/A,,Clear,290,2013-04-03 01:55:00
8:55 PM,57.0,19.9,24,29.92,10.0,West,9.2,-,N/A,,Clear,280,2013-04-03 02:55:00
9:55 PM,51.1,21.9,32,29.96,10.0,West,6.9,-,N/A,,Clear,280,2013-04-03 03:55:00
10:55 PM,48.9,23.0,36,29.98,10.0,ESE,3.5,-,N/A,,Clear,110,2013-04-03 04:55:00
11:55 PM,44.1,24.1,45,29.99,10.0,East,5.8,-,N/A,,Clear,100,2013-04-03 05:55:00